Time;durP1;ratioP1;P1;durP2;ratioP2;P2;SDS_P1;SDS_P2;PMS_P1;PMS_P2;Temp;Humidity;BMP_temperature;BMP_pressure;BME280_temperature;BME280_humidity;BME280_pressure;Samples;Min_cycle;Max_cycle;Signal;HPM_P1;HPM_P2
2022/04/11 00:02:16;;;;;;;6.18;2.80;;;;;;;9.67;54.10;99029.31;5048744;28;20044;-43
2022/04/11 00:04:42;;;;;;;4.78;2.97;;;;;;;9.72;54.47;99023.03;5056686;28;20040;-43
2022/04/11 00:07:08;;;;;;;5.15;3.10;;;;;;;9.74;54.34;99021.19;5065215;28;20435;-42
2022/04/11 00:09:34;;;;;;;7.50;3.00;;;;;;;9.76;54.74;99024.56;5048972;28;20045;-42
2022/04/11 00:12:00;;;;;;;5.20;3.33;;;;;;;9.77;54.62;99025.44;5060135;28;20060;-43
2022/04/11 00:14:26;;;;;;;8.88;3.13;;;;;;;9.76;54.12;99029.78;5052976;28;20037;-42
2022/04/11 00:16:52;;;;;;;8.13;3.53;;;;;;;9.66;54.26;99005.09;5053778;28;20233;-42
2022/04/11 00:19:17;;;;;;;4.60;3.22;;;;;;;9.80;54.27;99027.88;5048962;28;20041;-42
2022/04/11 00:21:43;;;;;;;6.70;3.58;;;;;;;9.83;54.18;99025.19;5066337;28;20066;-42
2022/04/11 00:24:09;;;;;;;7.28;3.92;;;;;;;9.88;54.44;99031.03;5054934;28;20139;-42
2022/04/11 00:26:35;;;;;;;7.57;3.50;;;;;;;9.88;54.29;99027.56;5054500;28;20569;-42
2022/04/11 00:29:00;;;;;;;11.10;4.07;;;;;;;9.77;54.17;99017.63;5055070;28;20132;-42
2022/04/11 00:31:26;;;;;;;6.85;3.80;;;;;;;9.79;54.01;99027.03;5048968;28;20041;-43
2022/04/11 00:33:52;;;;;;;8.70;4.10;;;;;;;9.82;54.58;99030.44;5046671;28;20039;-43
2022/04/11 00:36:18;;;;;;;6.28;3.80;;;;;;;9.83;54.75;99027.78;5048219;28;20047;-43
2022/04/11 00:38:44;;;;;;;7.07;3.80;;;;;;;9.83;54.34;99032.97;5050635;28;20037;-42
2022/04/11 00:41:10;;;;;;;10.27;4.57;;;;;;;9.79;54.61;99028.78;5051049;28;20135;-43
2022/04/11 00:43:40;;;;;;;6.68;3.90;;;;;;;9.64;55.35;99016.44;5060027;28;20103;-43
2022/04/11 00:46:07;;;;;;;6.97;4.38;;;;;;;9.59;55.05;98995.03;5048692;28;20036;-43
2022/04/11 00:48:34;;;;;;;7.35;4.88;;;;;;;9.65;55.31;99028.53;5046537;28;20047;-43
2022/04/11 00:51:06;;;;;;;4.70;3.72;;;;;;;9.57;55.39;99028.00;5047997;28;20048;-43
2022/04/11 00:53:32;;;;;;;8.40;4.20;;;;;;;9.32;55.57;99007.38;5059756;28;20095;-42
2022/04/11 00:55:59;;;;;;;7.07;3.90;;;;;;;9.44;55.36;99025.03;5048072;28;20139;-42
2022/04/11 00:58:25;;;;;;;7.88;4.10;;;;;;;9.41;56.01;99026.94;5039251;28;20041;-44
2022/04/11 01:00:51;;;;;;;6.95;3.60;;;;;;;9.33;56.01;99028.06;5047367;28;20041;-43
2022/04/11 01:03:17;;;;;;;6.97;3.50;;;;;;;9.27;56.46;99038.69;5062436;28;20048;-46
2022/04/11 01:05:43;;;;;;;7.80;3.63;;;;;;;9.24;56.60;99031.03;5069404;28;20046;-42
2022/04/11 01:08:09;;;;;;;6.93;3.40;;;;;;;9.18;56.53;99036.47;5063523;28;20141;-40
2022/04/11 01:10:35;;;;;;;4.47;2.63;;;;;;;9.13;56.22;99045.31;5038489;28;20044;-40
2022/04/11 01:13:03;;;;;;;4.15;2.65;;;;;;;9.06;57.20;99043.84;5066547;28;20508;-40
2022/04/11 01:15:29;;;;;;;6.88;2.70;;;;;;;8.99;57.17;99043.25;5049428;28;20042;-40
2022/04/11 01:17:55;;;;;;;4.55;2.70;;;;;;;8.96;57.56;99047.69;5049991;28;20040;-39
2022/04/11 01:20:21;;;;;;;3.90;2.45;;;;;;;8.89;57.62;99041.94;5054624;28;20063;-40
2022/04/11 01:22:48;;;;;;;4.05;2.35;;;;;;;8.87;57.85;99041.13;5070893;28;20036;-40
2022/04/11 01:25:16;;;;;;;3.70;2.40;;;;;;;8.85;57.68;99036.00;5082571;28;20053;-40
2022/04/11 01:27:43;;;;;;;3.40;2.22;;;;;;;8.82;57.63;99040.47;5049174;28;20047;-39
2022/04/11 01:30:15;;;;;;;3.58;2.40;;;;;;;8.80;58.07;99037.91;5050993;28;20508;-39
2022/04/11 01:32:43;;;;;;;7.95;2.40;;;;;;;8.70;58.15;99040.91;5068640;28;20040;-40
2022/04/11 01:35:20;;;;;;;3.65;2.22;;;;;;;8.66;58.67;99039.34;5051564;28;20040;-40
2022/04/11 01:37:46;;;;;;;4.43;2.25;;;;;;;8.53;58.99;99031.16;5049036;28;20045;-40
2022/04/11 01:40:12;;;;;;;3.55;2.30;;;;;;;8.60;59.54;99042.16;5051724;28;20056;-40
2022/04/11 01:42:38;;;;;;;2.85;2.15;;;;;;;8.55;59.38;99041.47;5053147;28;20048;-40
2022/04/11 01:45:09;;;;;;;3.80;2.38;;;;;;;8.41;59.76;99024.69;5034970;28;20052;-39
2022/04/11 01:47:34;;;;;;;3.20;2.28;;;;;;;8.46;60.12;99055.59;5069500;28;20044;-39
2022/04/11 01:50:01;;;;;;;3.47;1.85;;;;;;;8.43;60.26;99047.94;5052285;28;20051;-39
2022/04/11 01:52:29;;;;;;;3.90;2.28;;;;;;;8.30;60.90;99033.75;5035399;28;20046;-40
2022/04/11 01:54:54;;;;;;;2.78;2.00;;;;;;;8.27;61.22;99032.06;5069225;28;20518;-39
2022/04/11 01:57:20;;;;;;;4.45;2.05;;;;;;;8.22;61.27;99038.28;5049239;28;20119;-39
2022/04/11 01:59:46;;;;;;;3.92;1.90;;;;;;;8.17;61.48;99028.09;5053166;28;20060;-39
2022/04/11 02:02:12;;;;;;;3.58;2.15;;;;;;;8.20;61.32;99035.78;5065841;28;20041;-40
2022/04/11 02:04:38;;;;;;;4.05;2.40;;;;;;;8.19;61.60;99033.25;5067360;28;20129;-40
2022/04/11 02:07:04;;;;;;;3.42;1.95;;;;;;;8.15;61.40;99032.50;5049469;28;20720;-40
2022/04/11 02:09:30;;;;;;;3.05;1.85;;;;;;;8.13;61.62;99036.88;5054237;28;20107;-41
2022/04/11 02:11:55;;;;;;;2.67;1.98;;;;;;;8.11;61.74;99032.69;5064655;28;20516;-38
2022/04/11 02:14:22;;;;;;;3.83;1.80;;;;;;;8.06;62.04;99030.22;5051870;28;20037;-39
2022/04/11 02:16:47;;;;;;;3.63;2.10;;;;;;;8.05;62.07;99032.00;5020874;28;20534;-39
2022/04/11 02:19:13;;;;;;;2.83;1.60;;;;;;;8.01;62.12;99032.13;5048147;28;20555;-41
2022/04/11 02:21:39;;;;;;;2.90;1.90;;;;;;;7.92;62.22;99022.09;5049762;28;20087;-39
2022/04/11 02:24:05;;;;;;;3.25;1.63;;;;;;;7.87;62.50;99014.50;5048539;28;20080;-39
2022/04/11 02:26:31;;;;;;;2.72;1.45;;;;;;;7.89;62.35;99027.38;5061764;28;20044;-39
2022/04/11 02:28:57;;;;;;;2.75;1.27;;;;;;;7.85;62.47;99036.97;5055530;28;20613;-40
2022/04/11 02:31:23;;;;;;;1.75;1.40;;;;;;;7.84;62.42;99034.47;5048885;28;20476;-40
2022/04/11 02:33:49;;;;;;;4.30;1.83;;;;;;;7.78;62.66;99019.13;5029856;28;20037;-40
2022/04/11 02:36:14;;;;;;;3.85;1.60;;;;;;;7.84;62.76;99035.31;5030926;28;20045;-39
2022/04/11 02:38:40;;;;;;;3.15;1.50;;;;;;;7.82;63.00;99038.81;5047149;28;20082;-40
2022/04/11 02:41:07;;;;;;;2.60;1.30;;;;;;;7.77;63.51;99023.47;5053604;28;20064;-40
2022/04/11 02:43:39;;;;;;;4.60;1.20;;;;;;;7.66;63.18;99008.28;5058556;28;20302;-40
2022/04/11 02:46:08;;;;;;;3.97;1.33;;;;;;;7.73;63.24;99018.44;5051620;28;20094;-38
2022/04/11 02:48:38;;;;;;;2.63;1.50;;;;;;;7.71;63.59;99013.31;5059275;28;20032;-40
2022/04/11 02:51:13;;;;;;;3.00;1.70;;;;;;;7.76;63.84;99023.50;5049045;28;20782;-40
2022/04/11 02:53:43;;;;;;;3.83;1.25;;;;;;;7.74;63.71;99023.56;5047988;28;20416;-39
2022/04/11 02:56:10;;;;;;;1.90;1.23;;;;;;;7.73;63.88;99021.03;5049017;28;20036;-41
2022/04/11 02:58:36;;;;;;;3.35;1.67;;;;;;;7.73;64.35;99027.06;5057978;28;20594;-39
2022/04/11 03:01:02;;;;;;;3.05;1.25;;;;;;;7.72;64.27;99016.75;5050140;28;20036;-40
2022/04/11 03:03:29;;;;;;;1.65;1.02;;;;;;;7.73;64.12;99018.44;5034345;28;20043;-42
2022/04/11 03:05:56;;;;;;;2.45;1.45;;;;;;;7.78;64.19;99021.72;5065835;28;20793;-42
2022/04/11 03:08:22;;;;;;;3.22;1.40;;;;;;;7.79;64.31;99024.28;5063813;28;20107;-40
2022/04/11 03:10:48;;;;;;;1.48;1.00;;;;;;;7.77;64.06;99022.63;5041868;28;20068;-40
2022/04/11 03:13:14;;;;;;;2.85;1.10;;;;;;;7.76;64.02;99014.00;5049525;28;20504;-39
2022/04/11 03:15:41;;;;;;;1.88;1.00;;;;;;;7.75;64.02;99008.88;5065664;28;20074;-42
2022/04/11 03:18:07;;;;;;;2.80;1.05;;;;;;;7.76;64.22;99007.97;5066242;28;20094;-41
2022/04/11 03:20:36;;;;;;;1.17;0.85;;;;;;;7.77;64.17;99000.16;5048846;28;20540;-39
2022/04/11 03:23:02;;;;;;;2.28;1.20;;;;;;;7.80;64.06;99004.41;5047883;28;20036;-40
2022/04/11 03:25:32;;;;;;;;;;;;;;;7.76;64.15;99014.00;5081703;28;20571;-40
2022/04/11 03:27:58;;;;;;;1.80;1.15;;;;;;;7.74;64.22;99014.97;5047547;28;20358;-40
2022/04/11 03:30:25;;;;;;;2.15;1.20;;;;;;;7.75;64.41;99019.22;5049186;28;20123;-39
2022/04/11 03:32:50;;;;;;;4.03;1.15;;;;;;;7.76;64.20;99026.94;5047344;28;20038;-40
2022/04/11 03:35:17;;;;;;;2.30;1.00;;;;;;;7.78;64.01;99021.72;5030270;28;20139;-40
2022/04/11 03:37:44;;;;;;;3.42;1.25;;;;;;;7.81;64.05;99022.44;5056524;28;20083;-40
2022/04/11 03:40:22;;;;;;;5.07;1.50;;;;;;;7.82;63.92;99031.91;5060346;28;20538;-39
2022/04/11 03:42:49;;;;;;;5.65;1.77;;;;;;;7.83;64.07;99019.81;5046797;28;20036;-40
2022/04/11 03:45:14;;;;;;;3.75;1.50;;;;;;;7.82;64.16;99018.13;5047744;28;20052;-40
2022/04/11 03:47:43;;;;;;;9.50;1.58;;;;;;;7.79;64.25;99010.47;5047373;28;20091;-39
2022/04/11 03:50:12;;;;;;;3.33;1.23;;;;;;;7.71;64.37;98991.75;5048132;28;20424;-39
2022/04/11 03:52:41;;;;;;;1.92;1.20;;;;;;;7.76;64.50;99007.97;5063948;28;20087;-40
2022/04/11 03:55:09;;;;;;;2.40;1.10;;;;;;;7.76;64.41;99015.75;5059189;28;20409;-39
2022/04/11 03:57:37;;;;;;;5.72;1.52;;;;;;;7.64;64.34;98991.97;5047769;28;20463;-39
2022/04/11 04:00:04;;;;;;;1.90;1.67;;;;;;;7.74;64.45;99018.41;5045585;28;20347;-40
2022/04/11 04:02:46;;;;;;;1.70;1.27;;;;;;;7.72;64.47;99020.19;5048852;28;20041;-40
2022/04/11 04:05:14;;;;;;;3.22;1.10;;;;;;;7.72;64.24;99012.41;5024713;28;20037;-40
2022/04/11 04:07:40;;;;;;;1.75;1.15;;;;;;;7.72;64.26;99006.41;5049103;28;20064;-40
2022/04/11 04:10:07;;;;;;;2.40;1.05;;;;;;;7.65;64.26;98998.00;5055635;28;20131;-40
2022/04/11 04:12:36;;;;;;;1.50;1.02;;;;;;;7.64;64.39;99001.50;5066044;28;20052;-39
2022/04/11 04:15:13;;;;;;;3.30;1.30;;;;;;;7.69;64.43;98991.00;5050944;28;20098;-39
2022/04/11 04:17:45;;;;;;;1.98;1.20;;;;;;;7.73;64.28;98977.91;5047119;28;20504;-39
2022/04/11 04:20:10;;;;;;;2.92;1.48;;;;;;;7.75;64.16;98978.66;5047507;28;20070;-40
2022/04/11 04:22:36;;;;;;;3.22;1.85;;;;;;;7.66;64.71;98948.78;5046750;28;20836;-40
2022/04/11 04:25:04;;;;;;;3.55;1.30;;;;;;;7.85;64.27;98967.09;5057821;28;20043;-40
2022/04/11 04:27:30;;;;;;;7.32;1.50;;;;;;;7.88;64.15;98946.31;5066870;28;20044;-41
2022/04/11 04:29:56;;;;;;;2.50;1.52;;;;;;;7.92;63.96;98944.44;5053964;28;20127;-40
2022/04/11 04:32:22;;;;;;;1.90;1.30;;;;;;;7.97;63.94;98927.00;5047780;28;20040;-41
2022/04/11 04:34:49;;;;;;;2.97;1.42;;;;;;;8.05;63.86;98923.28;5047797;28;20043;-41
2022/04/11 04:37:16;;;;;;;4.28;1.58;;;;;;;8.14;63.53;98932.44;5049086;28;20131;-39
2022/04/11 04:39:42;;;;;;;6.50;2.05;;;;;;;8.11;63.37;98948.09;5061053;28;20119;-40
2022/04/11 04:42:08;;;;;;;2.70;1.60;;;;;;;8.03;63.59;98953.53;5050520;28;20470;-40
2022/04/11 04:44:40;;;;;;;10.73;2.92;;;;;;;8.01;63.64;98957.91;5050075;28;20060;-40
2022/04/11 04:47:07;;;;;;;5.47;2.10;;;;;;;7.97;63.51;98956.34;5050290;28;20130;-40
2022/04/11 04:49:39;;;;;;;4.25;1.65;;;;;;;7.94;63.62;98950.44;5083945;28;20044;-40
2022/04/11 04:52:07;;;;;;;6.75;2.00;;;;;;;7.86;63.38;98916.19;5066637;28;20552;-42
2022/04/11 04:54:37;;;;;;;2.08;1.52;;;;;;;7.97;63.53;98906.31;5053438;28;20065;-41
2022/04/11 04:57:04;;;;;;;3.85;1.95;;;;;;;8.02;63.60;98910.41;5069599;28;20040;-40
2022/04/11 04:59:30;;;;;;;5.65;1.80;;;;;;;8.12;63.37;98891.97;5060741;28;20083;-40
2022/04/11 05:02:02;;;;;;;6.07;1.63;;;;;;;8.17;63.04;98877.94;5050123;28;20101;-40
2022/04/11 05:04:29;;;;;;;6.45;1.70;;;;;;;8.22;63.00;98865.66;5045580;28;20508;-40
2022/04/11 05:06:57;;;;;;;3.70;2.17;;;;;;;8.11;62.72;98854.91;5049835;28;20102;-39
2022/04/11 05:09:24;;;;;;;5.88;2.35;;;;;;;8.22;62.71;98859.63;5054999;28;20067;-41
2022/04/11 05:11:50;;;;;;;1.90;1.45;;;;;;;8.26;62.43;98846.53;5055395;28;20464;-39
2022/04/11 05:14:16;;;;;;;8.77;2.70;;;;;;;8.34;62.14;98836.75;5048658;28;20052;-40
2022/04/11 05:16:43;;;;;;;3.33;1.58;;;;;;;8.40;61.85;98857.25;5050685;28;20116;-40
2022/04/11 05:19:13;;;;;;;3.22;1.85;;;;;;;8.42;61.66;98831.28;5049633;28;20045;-46
2022/04/11 05:21:39;;;;;;;6.63;2.45;;;;;;;8.53;61.32;98834.28;5049719;28;20056;-52
2022/04/11 05:24:06;;;;;;;5.55;1.98;;;;;;;8.58;61.08;98814.22;5050350;28;20045;-53
2022/04/11 05:26:32;;;;;;;6.95;2.00;;;;;;;8.60;60.83;98817.59;5065221;28;20041;-43
2022/04/11 05:28:58;;;;;;;5.95;1.92;;;;;;;8.41;60.74;98804.53;5059058;28;20523;-48
2022/04/11 05:31:24;;;;;;;5.78;2.10;;;;;;;8.54;60.89;98824.75;5025335;28;20029;-51
2022/04/11 05:33:52;;;;;;;3.35;1.67;;;;;;;8.44;61.03;98842.41;5049805;28;20146;-47
2022/04/11 05:36:19;;;;;;;9.90;1.55;;;;;;;8.34;60.88;98847.13;5048839;28;20586;-52
2022/04/11 05:38:46;;;;;;;5.60;2.00;;;;;;;8.20;61.30;98836.41;5048424;28;20051;-49
2022/04/11 05:41:14;;;;;;;8.90;1.58;;;;;;;8.27;61.33;98852.56;5062132;28;21185;-52
2022/04/11 05:43:52;;;;;;;3.90;1.50;;;;;;;8.22;61.32;98851.88;5047199;28;20044;-47
2022/04/11 05:46:22;;;;;;;5.30;1.67;;;;;;;8.21;61.35;98855.38;5003229;28;20040;-48
2022/04/11 05:49:04;;;;;;;8.00;2.80;;;;;;;8.22;61.63;98844.09;5054723;28;20051;-46
2022/04/11 05:51:32;;;;;;;6.97;1.88;;;;;;;8.23;61.88;98841.47;5068865;28;20638;-47
2022/04/11 05:53:58;;;;;;;8.00;2.17;;;;;;;8.27;61.94;98834.44;5053540;28;20056;-49
2022/04/11 05:56:24;;;;;;;8.82;2.60;;;;;;;8.28;61.84;98830.94;5038148;28;20036;-50
2022/04/11 05:58:50;;;;;;;6.97;2.53;;;;;;;8.27;62.27;98813.72;5049555;28;20060;-50
2022/04/11 06:01:16;;;;;;;4.55;2.20;;;;;;;8.24;62.66;98806.91;5053339;28;20044;-44
2022/04/11 06:03:42;;;;;;;6.80;2.63;;;;;;;8.22;62.58;98789.72;5049070;28;20044;-49
2022/04/11 06:06:08;;;;;;;5.75;2.10;;;;;;;8.23;62.79;98766.38;5031350;28;20618;-47
2022/04/11 06:08:35;;;;;;;7.13;2.00;;;;;;;8.26;63.01;98768.03;5018926;28;20095;-49
2022/04/11 06:11:01;;;;;;;5.15;2.40;;;;;;;8.22;62.81;98743.13;5049397;28;20041;-48
2022/04/11 06:13:27;;;;;;;4.00;2.10;;;;;;;8.35;63.54;98732.28;5048117;28;20074;-48
2022/04/11 06:15:55;;;;;;;3.90;1.50;;;;;;;8.48;63.94;98698.91;5039488;28;20064;-47
2022/04/11 06:18:21;;;;;;;3.15;1.42;;;;;;;8.52;64.69;98717.78;5051835;28;20648;-46
2022/04/11 06:20:49;;;;;;;5.53;2.10;;;;;;;8.42;65.34;98714.75;5049582;28;20033;-47
2022/04/11 06:23:16;;;;;;;3.25;1.70;;;;;;;8.30;66.36;98697.94;5049029;28;20075;-49
2022/04/11 06:25:42;;;;;;;5.28;2.05;;;;;;;8.19;66.59;98704.44;5049097;28;20056;-47
2022/04/11 06:28:08;;;;;;;5.28;2.30;;;;;;;8.21;67.19;98731.09;5047951;28;20037;-51
2022/04/11 06:30:34;;;;;;;4.80;2.08;;;;;;;8.19;67.70;98744.09;5047810;28;20051;-49
2022/04/11 06:33:00;;;;;;;4.18;2.20;;;;;;;8.20;67.77;98782.03;5053133;28;20424;-51
2022/04/11 06:35:26;;;;;;;2.78;2.00;;;;;;;8.19;68.22;98818.34;5058623;28;20060;-47
2022/04/11 06:37:52;;;;;;;2.90;2.30;;;;;;;8.16;68.25;98859.91;5047284;28;20036;-51
2022/04/11 06:40:19;;;;;;;3.60;2.25;;;;;;;7.91;69.46;98917.72;5047976;28;20044;-50
2022/04/11 06:42:46;;;;;;;4.38;2.35;;;;;;;7.37;77.40;98973.97;5043433;28;20127;-52
2022/04/11 06:45:44;;;;;;;8.90;3.53;;;;;;;6.76;84.00;99028.38;5055722;28;20109;-50
2022/04/11 06:48:10;;;;;;;8.57;3.13;;;;;;;6.45;90.48;99027.56;5056365;28;20044;-47
2022/04/11 06:50:37;;;;;;;10.15;3.90;;;;;;;5.99;93.11;99006.50;5062103;28;20569;-45
2022/04/11 06:53:02;;;;;;;7.82;3.75;;;;;;;5.80;99.43;98993.22;5101473;28;20074;-46
2022/04/11 06:55:28;;;;;;;12.32;5.20;;;;;;;5.78;100.00;99013.88;5051088;28;20068;-42
2022/04/11 06:57:54;;;;;;;10.18;4.40;;;;;;;5.71;100.00;99014.91;5026738;28;20508;-40
2022/04/11 07:00:20;;;;;;;5.88;3.47;;;;;;;5.76;100.00;99023.38;5031420;28;20091;-42
2022/04/11 07:02:46;;;;;;;7.05;4.30;;;;;;;5.51;100.00;98983.63;5048123;28;20061;-43
2022/04/11 07:05:12;;;;;;;9.32;5.22;;;;;;;5.79;100.00;98991.50;5047380;28;20045;-41
2022/04/11 07:07:39;;;;;;;12.63;5.57;;;;;;;5.96;100.00;98979.06;5047393;28;20523;-42
2022/04/11 07:10:05;;;;;;;11.90;4.78;;;;;;;6.03;100.00;98984.88;5048817;28;20041;-42
2022/04/11 07:12:31;;;;;;;9.48;5.32;;;;;;;6.01;100.00;98963.44;5048146;28;20404;-43
2022/04/11 07:15:02;;;;;;;14.35;5.78;;;;;;;6.12;100.00;98958.84;5048427;28;20135;-42
2022/04/11 07:17:29;;;;;;;10.30;5.20;;;;;;;6.04;100.00;98929.81;5046338;28;20040;-41
2022/04/11 07:19:55;;;;;;;11.63;5.10;;;;;;;6.11;100.00;98944.25;5041432;28;20037;-41
2022/04/11 07:22:21;;;;;;;8.43;5.20;;;;;;;5.97;100.00;98934.28;5036018;28;20102;-41
2022/04/11 07:24:47;;;;;;;8.23;5.03;;;;;;;5.97;100.00;98911.06;5046506;28;20041;-41
2022/04/11 07:27:13;;;;;;;9.13;4.28;;;;;;;5.97;100.00;98919.66;5046335;28;20041;-41
2022/04/11 07:29:39;;;;;;;6.82;4.25;;;;;;;5.90;100.00;98919.88;5047443;28;20498;-43
2022/04/11 07:32:05;;;;;;;9.93;4.80;;;;;;;5.83;100.00;98923.47;5047094;28;20048;-40
2022/04/11 07:34:30;;;;;;;7.30;4.68;;;;;;;5.75;100.00;98931.44;5051522;28;20063;-41
2022/04/11 07:36:56;;;;;;;9.32;5.22;;;;;;;5.58;100.00;98871.75;5065271;28;20064;-42
2022/04/11 07:39:23;;;;;;;9.00;4.90;;;;;;;5.66;100.00;98874.94;5080610;28;20500;-41
2022/04/11 07:41:50;;;;;;;8.80;4.40;;;;;;;5.64;100.00;98858.69;5048061;28;20032;-42
2022/04/11 07:44:16;;;;;;;6.50;4.15;;;;;;;5.62;100.00;98846.72;5048074;28;20033;-42
2022/04/11 07:46:41;;;;;;;11.02;5.18;;;;;;;5.47;100.00;98835.94;5047805;28;20063;-43
2022/04/11 07:49:08;;;;;;;7.43;3.95;;;;;;;5.49;100.00;98844.50;5046743;28;20044;-41
2022/04/11 07:51:34;;;;;;;7.95;4.50;;;;;;;5.52;100.00;98846.97;5047453;28;20040;-43
2022/04/11 07:54:00;;;;;;;5.57;4.15;;;;;;;5.49;100.00;98839.34;5047834;28;20110;-42
2022/04/11 07:56:28;;;;;;;8.50;4.60;;;;;;;5.45;100.00;98837.69;5047670;28;20055;-42
2022/04/11 07:58:57;;;;;;;8.93;4.68;;;;;;;5.43;100.00;98824.03;5045850;28;20053;-42
2022/04/11 08:01:24;;;;;;;5.38;3.80;;;;;;;5.42;100.00;98818.91;5046258;28;20041;-43
2022/04/11 08:03:50;;;;;;;5.65;4.07;;;;;;;5.42;100.00;98801.72;5046591;28;20048;-44
2022/04/11 08:06:16;;;;;;;7.72;3.63;;;;;;;5.41;100.00;98800.03;5048054;28;20037;-43
2022/04/11 08:08:46;;;;;;;7.05;4.05;;;;;;;5.39;100.00;98801.78;5046795;28;20044;-42
2022/04/11 08:11:16;;;;;;;7.65;3.40;;;;;;;5.39;100.00;98800.97;5047753;28;20047;-43
2022/04/11 08:13:42;;;;;;;6.30;3.53;;;;;;;5.33;100.00;98788.25;5051865;28;20138;-44
2022/04/11 08:16:08;;;;;;;6.47;4.15;;;;;;;5.47;100.00;98817.06;5050169;28;20041;-43
2022/04/11 08:18:34;;;;;;;5.63;3.50;;;;;;;5.35;100.00;98802.75;5049396;28;20515;-44
2022/04/11 08:21:04;;;;;;;5.40;3.50;;;;;;;5.48;100.00;98822.19;5050454;28;20040;-43
2022/04/11 08:23:30;;;;;;;4.60;3.28;;;;;;;5.44;100.00;98820.53;5066959;28;20881;-47
2022/04/11 08:25:56;;;;;;;6.68;3.70;;;;;;;5.46;100.00;98815.34;5051009;28;20056;-42
2022/04/11 08:28:22;;;;;;;11.30;4.30;;;;;;;5.38;100.00;98788.97;5051264;28;20060;-43
2022/04/11 08:30:49;;;;;;;7.20;3.55;;;;;;;5.46;100.00;98802.47;5051210;28;20055;-43
2022/04/11 08:33:15;;;;;;;7.03;3.42;;;;;;;5.48;100.00;98806.72;5034035;28;20069;-44
2022/04/11 08:35:44;;;;;;;6.47;4.45;;;;;;;5.48;100.00;98806.72;5066353;28;20048;-42
2022/04/11 08:38:10;;;;;;;5.72;4.15;;;;;;;5.24;100.00;98776.44;5051568;28;20047;-45
2022/04/11 08:40:36;;;;;;;10.10;5.00;;;;;;;5.46;100.00;98808.47;5051354;28;20071;-44
2022/04/11 08:43:02;;;;;;;12.27;6.68;;;;;;;5.56;100.00;98793.59;5050298;28;20029;-43
2022/04/11 08:45:29;;;;;;;11.82;7.20;;;;;;;5.56;100.00;98791.00;5051228;28;20497;-44
2022/04/11 08:47:56;;;;;;;7.32;5.03;;;;;;;5.59;100.00;98767.72;5031657;28;20873;-44
2022/04/11 08:50:23;;;;;;;10.05;4.47;;;;;;;5.65;100.00;98769.28;5031471;28;20505;-43
2022/04/11 08:52:50;;;;;;;5.68;4.00;;;;;;;5.65;100.00;98761.56;5047064;28;20044;-43
2022/04/11 08:55:16;;;;;;;9.73;4.60;;;;;;;5.62;100.00;98764.22;5049766;28;20503;-43
2022/04/11 08:57:41;;;;;;;6.80;3.63;;;;;;;5.58;100.00;98770.34;5033296;28;20037;-44
2022/04/11 09:00:15;;;;;;;5.30;3.85;;;;;;;5.60;100.00;98768.59;5048725;28;20065;-43
2022/04/11 09:02:42;;;;;;;7.85;4.47;;;;;;;5.63;100.00;98759.00;5050788;28;20440;-45
2022/04/11 09:05:09;;;;;;;7.45;4.45;;;;;;;5.67;100.00;98759.75;5049722;28;20159;-44
2022/04/11 09:07:45;;;;;;;6.97;4.90;;;;;;;5.55;100.00;98748.91;5031240;28;20041;-44
2022/04/11 09:10:12;;;;;;;8.10;5.03;;;;;;;5.72;100.00;98800.00;5049200;28;20041;-42
2022/04/11 09:12:51;;;;;;;7.00;4.32;;;;;;;5.74;100.00;98807.69;5050835;28;20797;-44
2022/04/11 09:15:18;;;;;;;5.30;3.67;;;;;;;5.73;100.00;98806.00;5050407;28;20051;-42
2022/04/11 09:17:45;;;;;;;6.30;3.60;;;;;;;5.74;100.00;98816.28;5050716;28;20420;-44
2022/04/11 09:20:13;;;;;;;5.93;3.15;;;;;;;5.62;100.00;98805.47;5050593;28;20583;-44
2022/04/11 09:22:39;;;;;;;3.72;2.75;;;;;;;5.68;100.00;98844.81;5050526;28;20043;-43
2022/04/11 09:25:15;;;;;;;4.35;2.75;;;;;;;5.63;100.00;98838.94;5049393;28;20803;-43
2022/04/11 09:27:41;;;;;;;5.38;3.30;;;;;;;5.62;100.00;98850.13;5065947;28;20102;-43
2022/04/11 09:30:27;;;;;;;6.80;3.42;;;;;;;5.67;100.00;98863.75;5049127;28;20103;-42
2022/04/11 09:33:01;;;;;;;4.82;3.15;;;;;;;5.71;100.00;98851.59;5050474;28;20568;-44
2022/04/11 09:35:30;;;;;;;6.30;3.33;;;;;;;5.70;100.00;98871.41;5049045;28;20041;-44
2022/04/11 09:38:10;;;;;;;6.68;3.15;;;;;;;5.71;100.00;98873.06;5050174;28;20037;-43
2022/04/11 09:40:48;;;;;;;4.32;2.58;;;;;;;5.63;100.00;98846.69;5050172;28;20459;-42
2022/04/11 09:43:16;;;;;;;4.75;3.15;;;;;;;5.73;100.00;98857.56;5049820;28;20839;-43
2022/04/11 09:45:46;;;;;;;8.27;3.95;;;;;;;5.64;100.00;98850.09;5050009;28;20591;-43
2022/04/11 09:48:26;;;;;;;5.75;3.10;;;;;;;5.73;100.00;98866.16;5082317;28;20197;-43
2022/04/11 09:50:53;;;;;;;3.88;2.80;;;;;;;5.74;100.00;98877.31;5050259;28;20034;-43
2022/04/11 09:53:24;;;;;;;3.88;2.80;;;;;;;5.75;100.00;98859.22;5049781;28;20040;-42
2022/04/11 09:55:52;;;;;;;5.05;2.80;;;;;;;5.79;100.00;98850.53;5049727;28;20072;-43
2022/04/11 09:58:28;;;;;;;6.63;3.00;;;;;;;5.83;100.00;98851.25;5046327;28;20475;-45
2022/04/11 10:00:54;;;;;;;4.20;2.53;;;;;;;5.86;100.00;98877.81;5048093;28;20045;-44
2022/04/11 10:03:23;;;;;;;4.60;3.20;;;;;;;5.89;100.00;98869.19;5081842;28;20124;-46
2022/04/11 10:05:49;;;;;;;5.38;3.40;;;;;;;5.93;100.00;98817.47;5081851;28;20091;-43
2022/04/11 10:08:15;;;;;;;5.95;2.75;;;;;;;5.97;100.00;98801.00;5049912;28;20036;-43
2022/04/11 10:10:42;;;;;;;3.85;2.90;;;;;;;5.87;100.00;98843.44;5063335;28;20056;-43
2022/04/11 10:13:15;;;;;;;5.78;3.78;;;;;;;5.72;100.00;98842.97;5049796;28;20037;-44
2022/04/11 10:15:43;;;;;;;8.45;5.63;;;;;;;5.76;100.00;98809.31;5062626;28;20244;-43
2022/04/11 10:18:12;;;;;;;10.50;5.43;;;;;;;5.89;100.00;98789.22;5048765;28;20040;-43
2022/04/11 10:20:50;;;;;;;5.15;3.70;;;;;;;5.92;100.00;98760.75;5049342;28;20041;-45
2022/04/11 10:23:31;;;;;;;5.55;2.80;;;;;;;6.21;100.00;98772.75;5029915;28;20057;-44
2022/04/11 10:25:59;;;;;;;4.70;2.70;;;;;;;6.24;100.00;98788.97;5064775;28;20532;-44
2022/04/11 10:28:28;;;;;;;4.30;2.92;;;;;;;6.23;100.00;98786.44;5031780;28;20055;-44
2022/04/11 10:31:10;;;;;;;7.38;3.38;;;;;;;6.15;100.00;98760.88;5048994;28;20094;-44
2022/04/11 10:33:52;;;;;;;4.97;2.80;;;;;;;6.34;100.00;98782.63;5048487;28;20037;-43
2022/04/11 10:36:35;;;;;;;4.03;1.85;;;;;;;6.38;100.00;98793.72;5049332;28;20409;-44
2022/04/11 10:39:12;;;;;;;2.40;1.90;;;;;;;6.35;100.00;98786.91;5049343;28;20045;-43
2022/04/11 10:42:11;;;;;;;2.58;1.70;;;;;;;6.35;100.00;98809.28;5049271;28;20056;-43
2022/04/11 10:44:48;;;;;;;6.15;3.83;;;;;;;6.35;100.00;98822.22;5037356;28;20060;-44
2022/04/11 10:47:15;;;;;;;4.07;2.35;;;;;;;6.35;100.00;98823.06;5042556;28;20043;-46
2022/04/11 10:49:50;;;;;;;3.22;1.80;;;;;;;6.39;100.00;98813.47;5064309;28;20045;-46
2022/04/11 10:52:35;;;;;;;4.55;1.88;;;;;;;6.47;100.00;98808.91;5048927;28;20091;-44
2022/04/11 10:55:06;;;;;;;2.70;1.98;;;;;;;6.49;100.00;98799.38;5047893;28;20036;-43
2022/04/11 10:57:39;;;;;;;3.83;1.52;;;;;;;6.51;100.00;98796.75;5043780;28;20044;-44
2022/04/11 11:00:18;;;;;;;3.05;2.13;;;;;;;6.58;100.00;98793.09;5046928;28;20064;-44
2022/04/11 11:02:57;;;;;;;3.63;2.13;;;;;;;6.64;100.00;98793.75;5045464;28;20041;-45
2022/04/11 11:05:23;;;;;;;5.70;2.00;;;;;;;6.63;100.00;98804.97;5048966;28;20432;-44
2022/04/11 11:07:49;;;;;;;2.92;1.75;;;;;;;6.62;100.00;98812.75;5064325;28;20044;-44
2022/04/11 11:10:27;;;;;;;2.10;1.70;;;;;;;6.52;100.00;98824.25;5047531;28;20094;-46
2022/04/11 11:13:31;;;;;;;2.00;1.40;;;;;;;6.48;100.00;98836.44;5027391;28;20130;-44
2022/04/11 11:16:01;;;;;;;2.38;1.45;;;;;;;6.56;100.00;98828.44;5030882;28;20072;-44
2022/04/11 11:18:47;;;;;;;5.13;2.03;;;;;;;6.62;100.00;98828.25;5047443;28;20068;-44
2022/04/11 11:21:18;;;;;;;4.10;2.70;;;;;;;6.68;100.00;98833.22;5048210;28;20777;-44
2022/04/11 11:24:04;;;;;;;7.22;3.15;;;;;;;6.69;100.00;98829.75;5048049;28;20041;-45
2022/04/11 11:26:45;;;;;;;6.43;3.03;;;;;;;6.70;100.00;98831.41;5048265;28;20136;-44
2022/04/11 11:29:33;;;;;;;5.35;2.83;;;;;;;6.73;100.00;98819.25;5048607;28;20055;-44
2022/04/11 11:32:02;;;;;;;7.70;2.75;;;;;;;6.76;100.00;98833.78;5056996;28;20073;-45
2022/04/11 11:34:33;;;;;;;4.55;2.30;;;;;;;6.73;100.00;98832.16;5080574;28;20037;-44
2022/04/11 11:37:04;;;;;;;5.55;2.08;;;;;;;6.75;100.00;98835.53;5048225;28;20041;-44
2022/04/11 11:39:31;;;;;;;3.67;2.10;;;;;;;6.74;100.00;98848.50;5048255;28;20431;-44
2022/04/11 11:42:05;;;;;;;5.72;2.17;;;;;;;6.76;100.00;98839.81;5079671;28;20040;-46
2022/04/11 11:44:31;;;;;;;4.30;2.78;;;;;;;6.76;100.00;98842.38;5046628;28;20543;-44
2022/04/11 11:46:59;;;;;;;6.00;2.70;;;;;;;6.77;100.00;98851.00;5056318;28;20044;-43